Terminal Aerodrome Forecast
Issued by NWS

Home | Current Version | Previous Version | Text Only | Print | Product List | Glossary On
Versions: 1 2 3 4 5 6 7 8 9 10 11 12 13 14 15 16 17 18 19
000
FTUS44 KCRP 231700
TAFALI
TAF
KALI 231728Z 2318/2418 15011KT P6SM SCT050
     FM240200 VRB05KT P6SM FEW030
     FM240900 VRB02KT 5SM BR FEW001
      TEMPO 2410/2414 1SM BR BKN005
     FM241400 18006KT P6SM SCT015=

USA.gov is the U.S. government's official web portal to all federal, state and local government web resources and services.